Time;durP1;ratioP1;P1;durP2;ratioP2;P2;SDS_P1;SDS_P2;PMS_P1;PMS_P2;Temp;Humidity;BMP_temperature;BMP_pressure;BME280_temperature;BME280_humidity;BME280_pressure;Samples;Min_cycle;Max_cycle;Signal;HPM_P1;HPM_P2
2023/03/22 00:01:09;;;;;;;29.48;15.85;;;;;;;11.94;79.46;100580.44;4976019;28;20432;-87
2023/03/22 00:03:35;;;;;;;29.48;17.25;;;;;;;11.92;80.04;100582.41;4976927;28;20031;-85
2023/03/22 00:06:00;;;;;;;32.95;17.23;;;;;;;11.99;79.80;100591.66;4973852;28;20117;-85
2023/03/22 00:08:26;;;;;;;29.85;16.00;;;;;;;11.97;79.88;100588.25;4985252;28;20023;-83
2023/03/22 00:10:51;;;;;;;27.20;15.52;;;;;;;11.94;79.96;100585.81;4994043;28;20058;-84
2023/03/22 00:13:17;;;;;;;32.47;16.85;;;;;;;11.95;79.45;100584.84;4987268;28;20046;-84
2023/03/22 00:15:44;;;;;;;27.63;16.95;;;;;;;11.97;79.72;100582.84;4981829;28;20031;-82
2023/03/22 00:18:11;;;;;;;24.15;15.45;;;;;;;11.94;79.53;100583.13;4991429;28;20031;-81
2023/03/22 00:20:38;;;;;;;29.80;17.55;;;;;;;11.89;79.27;100585.38;4991056;28;20034;-85
2023/03/22 00:23:03;;;;;;;24.67;16.20;;;;;;;11.84;79.40;100582.22;4977037;28;20043;-85
2023/03/22 00:25:29;;;;;;;31.08;17.02;;;;;;;11.86;80.07;100585.63;4970101;28;20079;-83
2023/03/22 00:27:55;;;;;;;39.80;18.23;;;;;;;11.76;79.87;100583.88;4970956;28;20030;-86
2023/03/22 00:30:21;;;;;;;32.20;17.25;;;;;;;11.61;80.11;100572.56;4971178;28;20031;-88
2023/03/22 00:32:46;;;;;;;35.97;17.05;;;;;;;11.47;80.87;100575.56;4974614;28;20038;-88
2023/03/22 00:35:11;;;;;;;32.53;19.95;;;;;;;11.57;81.16;100579.19;4970935;28;20103;-86
2023/03/22 00:37:37;;;;;;;41.50;19.30;;;;;;;11.58;81.02;100580.03;4970155;28;20054;-89
2023/03/22 00:40:09;;;;;;;33.13;17.75;;;;;;;11.55;81.36;100570.41;4969725;28;20109;-86
2023/03/22 00:42:39;;;;;;;37.38;18.30;;;;;;;11.64;81.27;100574.97;4970309;28;20034;-87
2023/03/22 00:45:07;;;;;;;32.38;18.63;;;;;;;11.66;81.04;100564.06;4968867;28;20275;-87
2023/03/22 00:47:33;;;;;;;32.28;18.98;;;;;;;11.66;81.81;100555.97;4970129;28;20891;-89
2023/03/22 00:49:59;;;;;;;37.80;21.20;;;;;;;11.77;81.27;100550.56;4973864;28;20030;-87
2023/03/22 00:52:25;;;;;;;38.25;19.75;;;;;;;11.79;80.85;100537.78;4974106;28;20038;-84
2023/03/22 00:54:50;;;;;;;34.30;19.90;;;;;;;11.82;80.57;100562.63;4974105;28;20038;-87
2023/03/22 00:57:17;;;;;;;36.55;19.67;;;;;;;11.80;81.11;100553.81;4974106;28;20031;-83
2023/03/22 00:59:43;;;;;;;35.15;17.67;;;;;;;11.82;80.64;100545.63;4973872;28;20033;-86
2023/03/22 01:02:12;;;;;;;30.80;17.85;;;;;;;11.91;80.41;100550.19;4976995;28;20038;-87
2023/03/22 01:04:45;;;;;;;33.88;19.90;;;;;;;11.79;80.64;100532.41;4977702;28;20490;-87
2023/03/22 01:07:16;;;;;;;33.55;19.17;;;;;;;11.83;80.31;100537.38;4989871;28;20030;-85
2023/03/22 01:09:45;;;;;;;34.03;18.55;;;;;;;11.76;79.97;100547.00;4998291;28;20015;-82
2023/03/22 01:12:11;;;;;;;37.78;19.23;;;;;;;11.74;80.74;100519.31;4985784;28;20062;-87
2023/03/22 01:14:36;;;;;;;40.92;19.55;;;;;;;11.80;80.07;100526.88;4973782;28;20035;-87
2023/03/22 01:17:02;;;;;;;35.47;20.55;;;;;;;11.87;80.19;100528.03;4974174;28;20042;-88
2023/03/22 01:19:28;;;;;;;35.22;20.92;;;;;;;11.90;80.10;100521.53;4955694;28;20047;-85
2023/03/22 01:21:54;;;;;;;38.50;19.67;;;;;;;11.91;79.50;100517.84;4972878;28;20457;-87
2023/03/22 01:24:19;;;;;;;32.38;19.48;;;;;;;11.97;79.76;100518.16;4972189;28;20038;-87
2023/03/22 01:26:45;;;;;;;45.53;22.52;;;;;;;11.93;79.00;100522.09;4973495;28;20039;-84
2023/03/22 01:29:11;;;;;;;39.92;22.20;;;;;;;11.97;79.22;100518.16;4973086;28;20030;-87
2023/03/22 01:31:36;;;;;;;39.50;23.48;;;;;;;11.94;78.45;100522.97;4972015;28;20027;-87
2023/03/22 01:34:02;;;;;;;45.08;22.30;;;;;;;11.99;78.48;100532.34;4973158;28;20106;-87
2023/03/22 01:36:28;;;;;;;40.22;22.55;;;;;;;11.96;78.06;100538.00;4973888;28;20134;-87
2023/03/22 01:38:54;;;;;;;41.30;21.85;;;;;;;11.99;77.91;100547.66;4972216;28;20137;-87
2023/03/22 01:41:19;;;;;;;44.67;24.40;;;;;;;11.92;77.67;100550.06;4974335;28;20447;-84
2023/03/22 01:43:44;;;;;;;41.42;23.48;;;;;;;11.91;77.36;100540.28;4973417;28;20402;-86
2023/03/22 01:46:11;;;;;;;42.00;23.20;;;;;;;11.96;77.18;100548.78;4973345;28;20044;-85
2023/03/22 01:48:40;;;;;;;38.33;23.52;;;;;;;11.79;77.44;100524.31;4973453;28;20039;-87
2023/03/22 01:51:14;;;;;;;47.70;23.60;;;;;;;11.91;77.46;100548.34;4973915;28;20097;-87
2023/03/22 01:54:06;;;;;;;35.65;22.10;;;;;;;11.99;77.62;100548.53;4973854;28;20501;-86
2023/03/22 01:56:35;;;;;;;38.75;23.13;;;;;;;11.93;77.26;100532.88;4972734;28;20129;-88
2023/03/22 01:59:02;;;;;;;34.50;22.95;;;;;;;11.97;77.30;100550.50;4973993;28;20117;-86
2023/03/22 02:01:29;;;;;;;38.65;23.27;;;;;;;11.96;77.25;100538.00;4974484;28;20026;-87
2023/03/22 02:04:05;;;;;;;37.92;23.00;;;;;;;11.95;77.46;100525.53;4975545;28;20027;-87
2023/03/22 02:06:32;;;;;;;40.75;24.40;;;;;;;12.06;77.33;100545.28;4990989;28;20102;-85
2023/03/22 02:08:58;;;;;;;51.10;24.25;;;;;;;12.09;76.89;100545.00;4998063;28;20038;-82
2023/03/22 02:11:37;;;;;;;46.65;24.10;;;;;;;12.16;76.97;100548.88;4984290;28;20062;-86
2023/03/22 02:14:40;;;;;;;50.38;23.52;;;;;;;12.24;76.90;100547.19;4973454;28;20481;-86
2023/03/22 02:17:13;;;;;;;46.30;26.15;;;;;;;12.25;76.72;100550.75;4973322;28;20101;-86
2023/03/22 02:19:47;;;;;;;48.63;25.30;;;;;;;12.26;76.80;100555.16;4973759;28;20022;-86
2023/03/22 02:22:38;;;;;;;43.60;24.95;;;;;;;12.30;76.72;100561.97;4971872;28;20050;-87
2023/03/22 02:25:19;;;;;;;48.33;25.80;;;;;;;12.30;76.53;100567.34;4972851;28;20031;-85
2023/03/22 02:28:09;;;;;;;48.47;24.63;;;;;;;12.25;76.28;100569.63;4973023;28;20035;-85
2023/03/22 02:30:59;;;;;;;50.92;25.13;;;;;;;12.15;77.50;100574.97;4972667;28;20457;-88
2023/03/22 02:34:02;;;;;;;47.22;26.17;;;;;;;12.19;77.89;100568.34;4972488;28;20041;-86
2023/03/22 02:36:52;;;;;;;45.33;24.02;;;;;;;12.16;77.54;100559.66;4972863;28;20035;-87
2023/03/22 02:39:26;;;;;;;39.33;23.10;;;;;;;12.26;77.30;100569.47;4974409;28;20402;-87
2023/03/22 02:42:16;;;;;;;43.28;23.58;;;;;;;12.28;76.40;100572.91;4973122;28;20166;-83
2023/03/22 02:45:00;;;;;;;43.33;23.95;;;;;;;12.28;76.69;100561.25;4972117;28;20477;-87
2023/03/22 02:47:49;;;;;;;50.67;26.10;;;;;;;12.27;76.36;100562.25;4972132;28;20030;-85
2023/03/22 02:50:19;;;;;;;48.15;24.42;;;;;;;12.25;76.34;100556.13;4912586;29;20043;-88
2023/03/22 02:53:06;;;;;;;51.75;26.77;;;;;;;12.20;76.30;100558.41;4913290;29;20517;-85
2023/03/22 02:55:31;;;;;;;52.08;27.25;;;;;;;12.13;76.56;100571.56;4915171;29;20051;-86
2023/03/22 02:58:05;;;;;;;47.25;26.05;;;;;;;12.07;77.27;100565.88;4915970;29;20040;-87
2023/03/22 03:00:32;;;;;;;45.47;26.63;;;;;;;11.98;77.81;100568.41;4918220;29;20112;-85
2023/03/22 03:03:10;;;;;;;52.80;26.42;;;;;;;11.94;77.87;100577.72;4920530;29;20115;-88
2023/03/22 03:05:39;;;;;;;46.17;25.23;;;;;;;11.91;78.77;100582.53;4928714;29;20028;-83
2023/03/22 03:08:06;;;;;;;43.40;26.40;;;;;;;11.80;79.27;100586.16;4937276;29;20052;-85
2023/03/22 03:10:33;;;;;;;47.60;26.55;;;;;;;11.70;80.00;100587.97;4928828;29;20040;-86
2023/03/22 03:12:58;;;;;;;46.42;26.98;;;;;;;11.64;80.28;100593.00;4896004;29;20092;-91
2023/03/22 03:15:24;;;;;;;42.50;25.55;;;;;;;11.56;81.30;100580.16;4918736;29;20059;-88
2023/03/22 03:18:22;;;;;;;39.33;22.85;;;;;;;11.42;81.64;100581.38;4930342;29;20039;-89
2023/03/22 03:21:06;;;;;;;44.63;23.90;;;;;;;11.36;82.68;100586.41;4930461;29;20064;-89
2023/03/22 03:23:48;;;;;;;44.40;24.02;;;;;;;11.30;83.08;100589.63;4920624;29;20499;-87
2023/03/22 03:26:24;;;;;;;47.38;24.50;;;;;;;11.25;84.10;100573.03;4917604;28;20139;-86
2023/03/22 03:28:57;;;;;;;42.95;24.63;;;;;;;11.28;84.44;100592.44;4973502;28;20033;-85
2023/03/22 03:31:39;;;;;;;41.90;23.10;;;;;;;11.21;84.17;100590.41;4977784;28;20027;-85
2023/03/22 03:34:12;;;;;;;45.97;23.88;;;;;;;11.17;84.47;100588.94;4974603;28;20082;-85
2023/03/22 03:36:43;;;;;;;55.95;24.73;;;;;;;11.11;85.09;100592.16;4974433;28;20085;-84
2023/03/22 03:39:13;;;;;;;48.10;25.13;;;;;;;11.05;85.13;100590.84;4975636;28;20042;-84
2023/03/22 03:41:41;;;;;;;60.67;28.35;;;;;;;11.03;85.40;100586.59;4991586;28;20035;-82
2023/03/22 03:44:06;;;;;;;44.35;25.13;;;;;;;10.98;85.79;100586.13;4995833;28;20031;-83
2023/03/22 03:46:32;;;;;;;50.15;28.38;;;;;;;10.97;86.92;100589.78;4965396;28;20074;-85
2023/03/22 03:48:58;;;;;;;42.65;25.58;;;;;;;10.97;86.64;100592.47;4978295;28;20033;-85
2023/03/22 03:51:26;;;;;;;41.65;25.08;;;;;;;10.94;86.95;100585.53;4978235;28;20482;-87
2023/03/22 03:53:51;;;;;;;47.53;25.52;;;;;;;11.01;87.62;100597.47;4971962;28;20034;-84
2023/03/22 03:56:17;;;;;;;44.88;25.15;;;;;;;10.92;87.20;100588.31;4971556;28;20038;-85
2023/03/22 03:58:42;;;;;;;42.38;25.83;;;;;;;10.93;86.89;100594.56;4971679;28;20126;-86
2023/03/22 04:01:08;;;;;;;43.03;25.42;;;;;;;11.00;86.93;100600.28;4973885;28;20030;-87
2023/03/22 04:03:33;;;;;;;46.20;25.75;;;;;;;11.05;87.21;100601.59;4973393;28;20490;-86
2023/03/22 04:05:58;;;;;;;43.83;26.02;;;;;;;11.00;86.94;100593.06;4992819;28;20046;-83
2023/03/22 04:08:25;;;;;;;40.47;24.00;;;;;;;11.05;86.91;100611.53;4995983;28;20027;-82
2023/03/22 04:10:51;;;;;;;49.08;25.35;;;;;;;10.97;86.67;100603.25;4985096;28;20093;-86
2023/03/22 04:13:18;;;;;;;47.55;28.05;;;;;;;11.03;86.66;100606.28;4981749;28;20050;-87
2023/03/22 04:15:43;;;;;;;53.50;27.98;;;;;;;11.02;86.60;100606.38;4973346;28;20072;-84
2023/03/22 04:18:10;;;;;;;49.42;26.95;;;;;;;10.89;86.71;100598.47;4980692;28;20064;-85
2023/03/22 04:20:37;;;;;;;53.25;27.60;;;;;;;10.97;87.04;100611.31;4989983;28;20082;-88
2023/03/22 04:23:03;;;;;;;48.70;27.08;;;;;;;11.00;87.44;100616.44;4986832;28;20026;-85
2023/03/22 04:25:28;;;;;;;45.60;26.63;;;;;;;10.97;86.78;100604.09;4988951;28;20054;-85
2023/03/22 04:27:54;;;;;;;57.15;27.23;;;;;;;11.03;87.39;100622.44;5006708;28;20038;-87
2023/03/22 04:30:21;;;;;;;50.15;26.17;;;;;;;11.00;87.24;100605.69;4989478;28;20038;-88
2023/03/22 04:32:47;;;;;;;42.70;25.35;;;;;;;11.13;86.57;100617.13;4988668;28;20466;-87
2023/03/22 04:35:13;;;;;;;44.92;25.73;;;;;;;11.12;87.09;100615.41;4987978;28;20094;-85
2023/03/22 04:37:40;;;;;;;47.83;26.67;;;;;;;11.19;86.39;100617.44;4973050;28;20082;-88
2023/03/22 04:40:07;;;;;;;36.65;21.92;;;;;;;11.14;86.15;100619.69;4989137;28;20031;-89
2023/03/22 04:42:33;;;;;;;36.88;23.08;;;;;;;11.11;85.86;100613.69;4974436;28;20125;-87
2023/03/22 04:44:59;;;;;;;34.38;19.83;;;;;;;11.07;86.15;100623.84;4973329;28;20169;-88
2023/03/22 04:47:24;;;;;;;33.28;17.05;;;;;;;11.01;85.80;100623.53;4988564;28;20046;-88
2023/03/22 04:49:50;;;;;;;28.33;16.52;;;;;;;10.89;86.04;100620.88;4978017;28;20038;-88
2023/03/22 04:52:16;;;;;;;35.47;18.30;;;;;;;11.01;86.71;100623.53;4989667;28;20058;-87
2023/03/22 04:54:42;;;;;;;37.53;21.23;;;;;;;11.08;86.65;100624.72;4972872;28;20038;-88
2023/03/22 04:57:07;;;;;;;33.67;19.42;;;;;;;11.08;86.36;100622.03;5004741;28;20030;-85
2023/03/22 04:59:33;;;;;;;34.20;17.80;;;;;;;11.08;86.57;100632.78;4983071;28;20070;-88
2023/03/22 05:01:58;;;;;;;35.75;20.10;;;;;;;10.93;86.65;100622.34;4985511;28;20031;-86
2023/03/22 05:04:26;;;;;;;28.73;16.42;;;;;;;10.78;86.39;100610.16;4991418;28;20066;-85
2023/03/22 05:06:52;;;;;;;31.60;17.75;;;;;;;10.73;87.27;100631.16;4995180;28;20027;-87
2023/03/22 05:09:17;;;;;;;27.58;15.80;;;;;;;10.66;87.96;100632.69;4991392;28;20053;-88
2023/03/22 05:11:43;;;;;;;25.60;15.32;;;;;;;10.64;88.57;100633.78;4981211;28;20114;-85
2023/03/22 05:14:09;;;;;;;25.08;14.35;;;;;;;10.55;89.13;100621.09;4990890;28;20057;-84
2023/03/22 05:16:35;;;;;;;17.95;12.57;;;;;;;10.53;88.96;100625.72;4988522;28;20061;-86
2023/03/22 05:19:01;;;;;;;21.17;12.38;;;;;;;10.33;89.59;100619.28;4988595;28;20074;-85
2023/03/22 05:21:28;;;;;;;18.15;11.95;;;;;;;10.33;90.19;100622.84;4985666;28;20026;-86
2023/03/22 05:23:55;;;;;;;17.98;11.02;;;;;;;10.24;89.99;100633.47;4985639;28;20031;-85
2023/03/22 05:26:23;;;;;;;20.58;12.05;;;;;;;10.15;90.66;100628.81;4990437;28;20034;-87
2023/03/22 05:28:53;;;;;;;18.75;11.18;;;;;;;10.31;91.33;100634.66;4978804;28;20505;-84
2023/03/22 05:31:23;;;;;;;31.23;16.35;;;;;;;10.30;90.84;100643.72;4983329;28;20027;-85
2023/03/22 05:34:08;;;;;;;21.95;13.13;;;;;;;10.32;90.55;100641.75;4982790;28;20089;-86
2023/03/22 05:36:35;;;;;;;20.83;11.00;;;;;;;10.33;91.12;100638.09;4979063;28;20050;-86
2023/03/22 05:39:01;;;;;;;17.15;10.60;;;;;;;10.20;90.89;100638.22;4958159;28;20043;-86
2023/03/22 05:41:26;;;;;;;26.65;13.20;;;;;;;10.26;90.93;100636.88;4955806;28;20042;-86
2023/03/22 05:43:52;;;;;;;22.92;13.13;;;;;;;10.26;90.63;100643.09;4972455;28;20053;-87
2023/03/22 05:46:17;;;;;;;17.95;9.52;;;;;;;10.27;90.87;100649.34;4972051;28;20055;-84
2023/03/22 05:48:43;;;;;;;16.90;10.27;;;;;;;10.26;91.41;100643.09;4971251;28;20041;-84
2023/03/22 05:51:16;;;;;;;17.73;11.10;;;;;;;10.38;90.79;100652.00;4971254;28;20093;-84
2023/03/22 05:53:45;;;;;;;25.02;13.07;;;;;;;10.45;91.21;100637.09;4971825;28;20047;-82
2023/03/22 05:56:11;;;;;;;27.58;14.88;;;;;;;10.55;91.00;100648.81;4971813;28;20050;-84
2023/03/22 05:58:38;;;;;;;25.40;12.70;;;;;;;10.53;91.14;100645.41;4971974;28;20441;-84
2023/03/22 06:01:10;;;;;;;30.35;14.18;;;;;;;10.50;89.94;100640.28;4972034;28;20126;-82
2023/03/22 06:03:36;;;;;;;26.38;14.07;;;;;;;10.53;89.50;100648.09;4978804;28;20073;-81
2023/03/22 06:06:05;;;;;;;25.45;14.27;;;;;;;10.33;89.26;100640.78;4985470;28;20067;-81
2023/03/22 06:08:32;;;;;;;22.00;14.27;;;;;;;10.26;89.83;100642.25;4980943;28;20359;-82
2023/03/22 06:10:58;;;;;;;23.98;14.13;;;;;;;10.25;90.28;100645.91;4973434;28;20126;-83
2023/03/22 06:13:24;;;;;;;21.33;13.40;;;;;;;10.28;90.52;100653.72;4973186;28;20054;-82
2023/03/22 06:15:49;;;;;;;22.27;13.05;;;;;;;10.34;91.01;100650.53;4973638;28;20026;-83
2023/03/22 06:18:15;;;;;;;23.88;12.75;;;;;;;10.25;91.40;100645.91;4955387;28;20639;-83
2023/03/22 06:20:41;;;;;;;25.40;14.05;;;;;;;10.29;91.23;100648.25;4975295;28;20043;-82
2023/03/22 06:23:07;;;;;;;25.02;14.48;;;;;;;10.20;91.43;100631.97;4973686;28;20034;-81
2023/03/22 06:25:33;;;;;;;18.40;11.90;;;;;;;10.23;90.39;100647.88;4974392;28;20046;-83
2023/03/22 06:27:59;;;;;;;23.73;14.68;;;;;;;10.37;90.61;100648.47;4985840;28;20038;-81
2023/03/22 06:30:24;;;;;;;23.50;12.70;;;;;;;10.42;90.03;100650.81;4993191;28;20026;-82
2023/03/22 06:32:50;;;;;;;25.30;15.05;;;;;;;10.42;90.12;100653.50;4992695;28;20031;-82
2023/03/22 06:35:15;;;;;;;19.67;12.02;;;;;;;10.35;89.73;100646.88;4991691;28;20039;-83
2023/03/22 06:37:41;;;;;;;22.95;12.20;;;;;;;10.36;90.38;100649.47;4974647;28;20030;-86
2023/03/22 06:40:07;;;;;;;14.57;9.85;;;;;;;10.48;90.29;100660.19;4974204;28;20031;-82
2023/03/22 06:42:33;;;;;;;16.75;11.38;;;;;;;10.51;90.62;100663.50;4972342;28;20114;-84
2023/03/22 06:44:59;;;;;;;17.25;10.63;;;;;;;10.50;90.19;100675.22;4972565;28;20384;-83
2023/03/22 06:47:25;;;;;;;23.90;12.45;;;;;;;10.63;90.56;100678.66;4972082;28;20034;-85
2023/03/22 06:49:51;;;;;;;16.33;10.63;;;;;;;10.71;90.84;100672.63;4953900;28;20046;-82
2023/03/22 06:52:16;;;;;;;23.90;12.68;;;;;;;10.71;90.25;100661.88;4972472;28;20479;-81
2023/03/22 06:54:42;;;;;;;20.92;13.43;;;;;;;10.89;90.43;100676.50;4973070;28;20101;-82
2023/03/22 06:57:07;;;;;;;27.48;15.70;;;;;;;11.00;90.45;100678.34;4976473;28;20081;-82
2023/03/22 06:59:33;;;;;;;28.75;14.93;;;;;;;11.10;90.52;100688.19;4976529;28;20041;-81
2023/03/22 07:01:59;;;;;;;23.50;16.02;;;;;;;11.07;90.21;100684.94;4983376;28;20384;-81
2023/03/22 07:04:24;;;;;;;32.55;16.33;;;;;;;11.16;89.54;100686.88;4990089;28;20482;-82
2023/03/22 07:06:50;;;;;;;43.53;18.63;;;;;;;11.17;89.92;100697.50;4981632;28;20054;-82
2023/03/22 07:09:16;;;;;;;26.35;15.73;;;;;;;11.33;90.22;100692.53;4972516;28;20388;-82
2023/03/22 07:11:42;;;;;;;23.48;11.48;;;;;;;11.35;90.21;100695.97;4972100;28;20047;-82
2023/03/22 07:14:07;;;;;;;18.20;11.82;;;;;;;11.38;88.60;100703.78;4971637;28;20102;-82
2023/03/22 07:16:33;;;;;;;19.10;11.13;;;;;;;11.27;87.22;100708.34;4972075;28;20117;-82
2023/03/22 07:18:58;;;;;;;23.83;14.43;;;;;;;11.23;87.07;100705.06;4972125;28;20675;-81
2023/03/22 07:21:24;;;;;;;21.05;15.45;;;;;;;11.27;87.52;100701.13;4972304;28;20035;-81
2023/03/22 07:23:49;;;;;;;19.35;11.73;;;;;;;11.33;87.44;100721.31;4972295;28;20043;-82
2023/03/22 07:26:15;;;;;;;16.17;11.13;;;;;;;11.26;86.46;100712.03;4971938;28;20082;-82
2023/03/22 07:28:43;;;;;;;21.33;12.88;;;;;;;11.12;86.18;100707.78;4972875;28;20031;-82
2023/03/22 07:31:11;;;;;;;19.77;13.20;;;;;;;11.25;86.61;100719.22;4971830;28;20030;-82
2023/03/22 07:33:37;;;;;;;21.60;12.57;;;;;;;11.28;86.67;100704.69;4972197;28;20019;-81
2023/03/22 07:36:04;;;;;;;26.42;16.70;;;;;;;11.43;87.48;100703.41;4972069;28;20031;-83
2023/03/22 07:38:29;;;;;;;17.45;12.18;;;;;;;11.51;87.78;100709.00;4972635;28;20031;-83
2023/03/22 07:40:55;;;;;;;18.05;12.98;;;;;;;11.58;87.34;100709.34;4972454;28;20160;-83
2023/03/22 07:43:21;;;;;;;18.98;12.63;;;;;;;11.59;86.83;100706.50;4971978;28;20031;-82
2023/03/22 07:45:51;;;;;;;36.90;19.95;;;;;;;11.65;87.01;100716.75;4972292;28;20036;-81
2023/03/22 07:48:21;;;;;;;22.98;15.38;;;;;;;11.77;87.20;100707.66;4972094;28;20019;-82
2023/03/22 07:50:47;;;;;;;18.02;12.07;;;;;;;11.88;87.16;100717.56;4972414;28;20035;-83
2023/03/22 07:53:12;;;;;;;20.23;13.98;;;;;;;11.90;86.46;100716.44;4971209;28;20023;-82
2023/03/22 07:55:41;;;;;;;18.52;12.65;;;;;;;12.02;85.13;100720.75;4973300;28;20043;-83
2023/03/22 07:58:06;;;;;;;27.45;13.23;;;;;;;12.12;83.85;100718.13;4973516;28;20070;-83
2023/03/22 08:00:32;;;;;;;18.95;12.90;;;;;;;12.10;83.51;100700.38;4990952;28;20034;-81
2023/03/22 08:02:57;;;;;;;15.65;11.43;;;;;;;12.04;82.51;100722.47;4989832;28;20065;-80
2023/03/22 08:05:23;;;;;;;19.00;12.52;;;;;;;12.12;82.23;100717.28;4979663;28;20081;-82
2023/03/22 08:07:50;;;;;;;20.30;12.75;;;;;;;12.21;82.06;100721.88;4971674;28;20039;-85
2023/03/22 08:10:16;;;;;;;23.40;13.65;;;;;;;12.29;82.05;100716.69;4971557;28;20026;-83
2023/03/22 08:12:41;;;;;;;22.25;14.02;;;;;;;12.48;81.77;100722.16;4971573;28;20552;-83
2023/03/22 08:15:08;;;;;;;26.77;13.52;;;;;;;12.61;82.09;100728.19;4970856;28;20506;-84
2023/03/22 08:17:34;;;;;;;16.83;11.93;;;;;;;12.58;82.03;100723.06;4970794;28;20035;-83
2023/03/22 08:20:00;;;;;;;38.85;20.98;;;;;;;12.53;81.79;100715.41;4970880;28;20133;-83
2023/03/22 08:22:28;;;;;;;20.45;13.43;;;;;;;12.59;81.56;100724.78;4970597;28;20037;-81
2023/03/22 08:24:55;;;;;;;22.02;14.07;;;;;;;12.57;80.90;100727.59;4970721;28;20023;-83
2023/03/22 08:27:20;;;;;;;22.77;14.13;;;;;;;12.47;81.08;100726.72;4970378;28;20039;-82
2023/03/22 08:29:47;;;;;;;25.42;14.65;;;;;;;12.43;81.10;100733.38;4968187;28;20382;-83
2023/03/22 08:32:14;;;;;;;21.02;13.88;;;;;;;12.37;80.89;100743.84;4970170;28;20030;-83
2023/03/22 08:34:40;;;;;;;23.98;14.43;;;;;;;12.27;80.65;100740.22;4970692;28;20033;-83
2023/03/22 08:37:07;;;;;;;25.67;14.52;;;;;;;12.21;81.53;100747.00;4970216;28;20049;-82
2023/03/22 08:39:33;;;;;;;17.70;12.43;;;;;;;12.11;81.47;100745.25;4970273;28;20030;-82
2023/03/22 08:41:59;;;;;;;23.23;14.80;;;;;;;12.14;81.75;100750.38;4970224;28;20501;-84
2023/03/22 08:44:25;;;;;;;22.83;14.32;;;;;;;12.27;81.83;100751.88;4971089;28;20070;-82
2023/03/22 08:46:50;;;;;;;19.80;13.15;;;;;;;12.21;82.00;100749.69;4970920;28;20058;-83
2023/03/22 08:49:16;;;;;;;21.83;15.48;;;;;;;12.16;81.53;100759.19;4970636;28;20027;-84
2023/03/22 08:51:41;;;;;;;25.52;17.33;;;;;;;12.11;81.85;100769.50;4971399;28;20038;-82
2023/03/22 08:54:07;;;;;;;31.92;17.10;;;;;;;12.16;83.53;100767.25;4971263;28;20562;-83
2023/03/22 08:56:36;;;;;;;57.13;26.38;;;;;;;12.15;83.93;100774.50;4971377;28;20037;-84
2023/03/22 08:59:06;;;;;;;32.70;16.83;;;;;;;12.16;84.25;100770.81;4985706;28;20094;-82
2023/03/22 09:01:33;;;;;;;33.53;18.15;;;;;;;12.15;84.08;100773.63;4977739;28;20039;-82
2023/03/22 09:03:59;;;;;;;34.60;17.08;;;;;;;12.12;84.40;100773.91;4973130;28;20035;-81
2023/03/22 09:06:25;;;;;;;31.70;18.08;;;;;;;12.00;84.87;100775.81;4969965;28;20073;-81
2023/03/22 09:08:51;;;;;;;28.52;15.82;;;;;;;11.93;85.29;100780.00;4969901;28;20489;-81
2023/03/22 09:11:18;;;;;;;34.72;17.98;;;;;;;11.72;86.04;100782.66;4972769;28;20045;-82
2023/03/22 09:13:44;;;;;;;35.42;17.83;;;;;;;11.54;86.74;100778.78;4973879;28;20125;-82
2023/03/22 09:16:10;;;;;;;28.02;18.35;;;;;;;11.53;87.17;100782.44;4973651;28;20085;-81
2023/03/22 09:18:37;;;;;;;29.55;18.40;;;;;;;11.40;87.93;100795.22;4973890;28;20039;-83
2023/03/22 09:21:04;;;;;;;38.03;19.02;;;;;;;11.30;89.15;100787.03;4973599;28;20486;-82
2023/03/22 09:23:31;;;;;;;36.28;19.90;;;;;;;11.21;89.68;100797.69;4974311;28;20109;-82
2023/03/22 09:26:00;;;;;;;30.40;17.58;;;;;;;11.11;90.12;100797.59;4973604;28;20027;-83
2023/03/22 09:28:26;;;;;;;26.52;16.52;;;;;;;10.89;90.43;100793.06;4973481;28;20118;-83
2023/03/22 09:30:52;;;;;;;29.85;16.25;;;;;;;10.82;91.34;100805.28;4973277;28;20109;-82
2023/03/22 09:33:17;;;;;;;31.85;17.15;;;;;;;10.66;91.86;100798.56;4973457;28;20459;-83
2023/03/22 09:35:43;;;;;;;31.63;17.65;;;;;;;10.60;91.85;100812.50;4973141;28;20029;-81
2023/03/22 09:38:09;;;;;;;30.83;17.35;;;;;;;10.55;92.93;100810.16;4973274;28;20027;-83
2023/03/22 09:40:37;;;;;;;31.05;17.48;;;;;;;10.51;93.54;100819.47;4973748;28;20100;-83
2023/03/22 09:43:06;;;;;;;31.25;19.55;;;;;;;10.42;93.94;100822.88;4973150;28;20442;-84
2023/03/22 09:45:40;;;;;;;35.88;17.92;;;;;;;10.46;94.56;100821.63;4973649;28;20086;-82
2023/03/22 09:48:29;;;;;;;39.45;20.60;;;;;;;10.54;94.76;100830.00;4973148;28;20035;-82
2023/03/22 09:50:55;;;;;;;43.08;23.42;;;;;;;10.58;95.47;100819.84;4974139;28;20070;-82
2023/03/22 09:53:23;;;;;;;37.33;18.95;;;;;;;10.54;95.68;100827.31;4976851;28;20546;-82
2023/03/22 09:56:05;;;;;;;34.35;19.70;;;;;;;10.44;95.73;100834.34;4975764;28;20089;-82
2023/03/22 09:58:52;;;;;;;32.50;17.73;;;;;;;10.32;95.99;100835.31;4992149;28;20035;-83
2023/03/22 10:01:44;;;;;;;29.23;17.08;;;;;;;10.37;96.25;100831.28;4986157;28;20426;-83
2023/03/22 10:04:34;;;;;;;36.65;16.45;;;;;;;10.41;96.44;100836.44;4973226;28;20026;-82
2023/03/22 10:07:36;;;;;;;38.80;17.60;;;;;;;10.39;96.36;100841.94;4972974;28;20387;-83
2023/03/22 10:10:02;;;;;;;28.23;17.00;;;;;;;10.32;96.27;100832.63;4912343;29;20126;-80
2023/03/22 10:12:31;;;;;;;36.20;19.05;;;;;;;10.23;96.50;100826.13;4912554;29;20052;-82
2023/03/22 10:14:57;;;;;;;31.95;18.95;;;;;;;10.25;96.34;100823.31;4913233;29;20036;-81
2023/03/22 10:17:25;;;;;;;31.90;17.98;;;;;;;10.39;96.60;100831.19;4912873;29;20032;-81
2023/03/22 10:20:08;;;;;;;31.58;14.57;;;;;;;10.28;96.84;100836.50;4914645;29;20039;-83
2023/03/22 10:22:39;;;;;;;22.00;12.73;;;;;;;10.18;96.92;100830.16;4898804;29;20050;-82
2023/03/22 10:25:07;;;;;;;33.35;14.45;;;;;;;10.20;97.60;100814.75;4912285;29;20029;-82
2023/03/22 10:27:33;;;;;;;28.20;13.90;;;;;;;10.34;97.74;100839.59;4912311;29;20370;-82
2023/03/22 10:30:18;;;;;;;26.77;13.77;;;;;;;10.36;97.58;100834.97;4912156;29;20148;-83
2023/03/22 10:32:51;;;;;;;28.83;13.43;;;;;;;10.29;96.83;100835.53;4912271;29;20039;-82
2023/03/22 10:35:16;;;;;;;19.52;12.98;;;;;;;10.30;96.89;100837.28;4912173;29;20138;-84
2023/03/22 10:37:45;;;;;;;29.13;15.27;;;;;;;10.32;97.11;100838.00;4912546;29;20180;-82
2023/03/22 10:40:25;;;;;;;25.65;15.90;;;;;;;10.27;97.17;100832.97;4912285;29;20043;-82
2023/03/22 10:42:56;;;;;;;26.48;14.25;;;;;;;10.32;97.08;100829.94;4912183;29;20044;-82
2023/03/22 10:45:25;;;;;;;21.42;12.95;;;;;;;10.31;96.84;100838.97;4912743;29;20036;-83
2023/03/22 10:48:05;;;;;;;28.73;14.00;;;;;;;10.33;97.32;100834.34;4947115;28;20043;-85
2023/03/22 10:50:35;;;;;;;29.90;14.32;;;;;;;10.28;97.22;100825.75;4972093;28;20019;-82
2023/03/22 10:53:19;;;;;;;24.95;14.07;;;;;;;10.40;97.77;100832.03;4972637;28;20034;-83
2023/03/22 10:55:45;;;;;;;24.73;14.10;;;;;;;10.49;97.24;100831.31;4986080;28;20031;-81
2023/03/22 10:58:11;;;;;;;22.75;13.20;;;;;;;10.56;96.65;100833.41;4988385;28;20058;-85
2023/03/22 11:00:36;;;;;;;24.35;13.35;;;;;;;10.51;96.18;100832.91;4975015;28;20042;-82
2023/03/22 11:03:05;;;;;;;25.77;13.32;;;;;;;10.45;96.53;100817.25;4972363;28;20023;-82
2023/03/22 11:05:31;;;;;;;24.23;14.23;;;;;;;10.53;95.84;100820.19;4971774;28;20026;-82
2023/03/22 11:07:57;;;;;;;23.95;15.10;;;;;;;10.59;95.78;100827.78;4970334;28;20031;-82
2023/03/22 11:10:32;;;;;;;21.40;13.30;;;;;;;10.70;96.35;100813.50;4971730;28;20022;-83
2023/03/22 11:13:07;;;;;;;24.33;13.35;;;;;;;10.80;96.29;100825.22;4972168;28;20065;-82
2023/03/22 11:15:37;;;;;;;23.58;13.02;;;;;;;10.85;95.64;100812.28;4971675;28;20037;-81
2023/03/22 11:18:15;;;;;;;19.05;12.13;;;;;;;10.82;95.26;100817.91;4970156;28;20592;-82